Terminal Aerodrome Forecast
Issued by NWS

Home | Current Version | Previous Version | Text Only | Print | Product List | Glossary On
Versions: 1 2 3 4 5 6 7 8 9 10 11 12 13 14 15 16 17
000
FTUS44 KLZK 110500 RRA
TAFHOT
TAF
KHOT 110540Z 1106/1206 09005KT P6SM VCSH FEW030 BKN100
      TEMPO 1106/1109 5SM BR BKN030
     FM110900 VRB03KT 4SM BR SCT005 BKN050
      TEMPO 1109/1113 2SM BR BKN005
     FM111500 17005KT P6SM SCT025 BKN040
     FM111800 20006KT P6SM VCTS SCT050CB
     FM120100 VRB03KT P6SM SCT250=

USA.gov is the U.S. government's official web portal to all federal, state and local government web resources and services.